Richlandtown, Pennsylvania
Current Conditions -  °F | °C
As of 2:15 PM on Friday 24 Oct 2014 (Local Time) from KUKT Reporting Station
Clear Clear  
Wind Chill: 66°   Ceiling: Unl
Heat Index: 66°   Visibility: 10mi
Dew Point: 45°   Wind: 13mph
Humidity: 46%   Direction: 340°NNW
Pressure: 29.82"   Gusts: 17mph
Location:  40.47°N, 75.32°W
Report Text: KUKT 241815Z AUTO 34011G15KT 10SM CLR 19/07 A2982 RMK AO1
Loading
Personal Weather Stations






























Interactive Weather Map
Tropical Storm Tracking
New forecast layout! Learn more

10-Day Weather Forecast

Advertisements
Track Severe Weather on mobile